sensor_id;sensor_type;location;lat;lon;timestamp;P1;durP1;ratioP1;P2;durP2;ratioP2
62353;SDS011;48391;49.184;2.418;2023-06-14T00:02:16;2.30;;;2.20;;
62353;SDS011;48391;49.184;2.418;2023-06-14T00:04:42;2.35;;;2.25;;
62353;SDS011;48391;49.184;2.418;2023-06-14T00:07:08;2.58;;;2.38;;
62353;SDS011;48391;49.184;2.418;2023-06-14T00:09:34;2.85;;;2.13;;
62353;SDS011;48391;49.184;2.418;2023-06-14T00:12:01;2.30;;;2.10;;
62353;SDS011;48391;49.184;2.418;2023-06-14T00:14:27;2.28;;;2.10;;
62353;SDS011;48391;49.184;2.418;2023-06-14T00:16:53;2.13;;;2.03;;
62353;SDS011;48391;49.184;2.418;2023-06-14T00:19:23;2.30;;;2.10;;
62353;SDS011;48391;49.184;2.418;2023-06-14T00:21:49;1.92;;;1.83;;
62353;SDS011;48391;49.184;2.418;2023-06-14T00:24:16;3.20;;;2.55;;
62353;SDS011;48391;49.184;2.418;2023-06-14T00:26:43;2.53;;;2.33;;
62353;SDS011;48391;49.184;2.418;2023-06-14T00:29:09;3.17;;;2.03;;
62353;SDS011;48391;49.184;2.418;2023-06-14T00:31:35;2.20;;;2.10;;
62353;SDS011;48391;49.184;2.418;2023-06-14T00:34:01;1.88;;;1.77;;
62353;SDS011;48391;49.184;2.418;2023-06-14T00:36:27;1.90;;;1.80;;
62353;SDS011;48391;49.184;2.418;2023-06-14T00:38:53;2.67;;;2.47;;
62353;SDS011;48391;49.184;2.418;2023-06-14T00:41:19;1.77;;;1.67;;
62353;SDS011;48391;49.184;2.418;2023-06-14T00:43:45;2.13;;;1.92;;
62353;SDS011;48391;49.184;2.418;2023-06-14T00:46:11;1.80;;;1.70;;
62353;SDS011;48391;49.184;2.418;2023-06-14T00:48:37;2.03;;;1.80;;
62353;SDS011;48391;49.184;2.418;2023-06-14T00:51:04;2.15;;;1.95;;
62353;SDS011;48391;49.184;2.418;2023-06-14T00:53:30;2.00;;;1.90;;
62353;SDS011;48391;49.184;2.418;2023-06-14T00:55:59;2.03;;;1.85;;
62353;SDS011;48391;49.184;2.418;2023-06-14T00:58:25;2.92;;;2.67;;
62353;SDS011;48391;49.184;2.418;2023-06-14T01:00:52;2.55;;;2.35;;
62353;SDS011;48391;49.184;2.418;2023-06-14T01:03:18;2.25;;;1.80;;
62353;SDS011;48391;49.184;2.418;2023-06-14T01:05:47;2.22;;;2.13;;
62353;SDS011;48391;49.184;2.418;2023-06-14T01:08:17;2.53;;;2.33;;
62353;SDS011;48391;49.184;2.418;2023-06-14T01:10:47;2.67;;;2.47;;
62353;SDS011;48391;49.184;2.418;2023-06-14T01:15:44;1.77;;;1.67;;
62353;SDS011;48391;49.184;2.418;2023-06-14T01:18:10;1.73;;;1.60;;
62353;SDS011;48391;49.184;2.418;2023-06-14T01:20:42;2.78;;;2.58;;
62353;SDS011;48391;49.184;2.418;2023-06-14T01:23:10;2.47;;;2.28;;
62353;SDS011;48391;49.184;2.418;2023-06-14T01:25:37;1.50;;;1.40;;
62353;SDS011;48391;49.184;2.418;2023-06-14T01:28:05;1.50;;;1.40;;
62353;SDS011;48391;49.184;2.418;2023-06-14T01:30:37;1.63;;;1.52;;
62353;SDS011;48391;49.184;2.418;2023-06-14T01:33:03;2.22;;;2.03;;
62353;SDS011;48391;49.184;2.418;2023-06-14T01:35:30;2.05;;;1.85;;
62353;SDS011;48391;49.184;2.418;2023-06-14T01:37:56;1.65;;;1.55;;
62353;SDS011;48391;49.184;2.418;2023-06-14T01:40:22;1.02;;;1.02;;
62353;SDS011;48391;49.184;2.418;2023-06-14T01:42:49;1.58;;;1.48;;
62353;SDS011;48391;49.184;2.418;2023-06-14T01:45:15;1.85;;;1.75;;
62353;SDS011;48391;49.184;2.418;2023-06-14T01:47:42;1.20;;;1.10;;
62353;SDS011;48391;49.184;2.418;2023-06-14T01:50:09;1.63;;;1.52;;
62353;SDS011;48391;49.184;2.418;2023-06-14T01:52:36;1.45;;;1.35;;
62353;SDS011;48391;49.184;2.418;2023-06-14T01:55:03;1.02;;;1.02;;
62353;SDS011;48391;49.184;2.418;2023-06-14T01:57:29;1.65;;;1.55;;
62353;SDS011;48391;49.184;2.418;2023-06-14T01:59:55;1.23;;;1.17;;
62353;SDS011;48391;49.184;2.418;2023-06-14T02:02:22;0.90;;;0.90;;
62353;SDS011;48391;49.184;2.418;2023-06-14T02:04:48;1.17;;;1.10;;
62353;SDS011;48391;49.184;2.418;2023-06-14T02:09:50;1.50;;;1.40;;
62353;SDS011;48391;49.184;2.418;2023-06-14T02:12:16;1.40;;;1.23;;
62353;SDS011;48391;49.184;2.418;2023-06-14T02:14:42;0.80;;;0.80;;
62353;SDS011;48391;49.184;2.418;2023-06-14T02:17:09;1.10;;;0.98;;
62353;SDS011;48391;49.184;2.418;2023-06-14T02:19:35;0.95;;;0.95;;
62353;SDS011;48391;49.184;2.418;2023-06-14T02:22:01;1.30;;;1.20;;
62353;SDS011;48391;49.184;2.418;2023-06-14T02:24:27;1.92;;;1.40;;
62353;SDS011;48391;49.184;2.418;2023-06-14T02:26:53;1.55;;;1.45;;
62353;SDS011;48391;49.184;2.418;2023-06-14T02:29:19;1.40;;;1.25;;
62353;SDS011;48391;49.184;2.418;2023-06-14T02:31:46;1.15;;;1.10;;
62353;SDS011;48391;49.184;2.418;2023-06-14T02:34:13;1.23;;;1.23;;
62353;SDS011;48391;49.184;2.418;2023-06-14T02:36:41;0.77;;;0.77;;
62353;SDS011;48391;49.184;2.418;2023-06-14T02:39:08;0.85;;;0.75;;
62353;SDS011;48391;49.184;2.418;2023-06-14T02:41:37;1.40;;;1.30;;
62353;SDS011;48391;49.184;2.418;2023-06-14T02:44:03;0.90;;;0.90;;
62353;SDS011;48391;49.184;2.418;2023-06-14T02:46:29;1.48;;;1.38;;
62353;SDS011;48391;49.184;2.418;2023-06-14T02:48:55;1.33;;;1.25;;
62353;SDS011;48391;49.184;2.418;2023-06-14T02:51:22;1.52;;;1.42;;
62353;SDS011;48391;49.184;2.418;2023-06-14T02:53:47;0.90;;;0.90;;
62353;SDS011;48391;49.184;2.418;2023-06-14T02:56:14;0.82;;;0.82;;
62353;SDS011;48391;49.184;2.418;2023-06-14T02:58:42;1.45;;;1.35;;
62353;SDS011;48391;49.184;2.418;2023-06-14T03:01:08;1.42;;;1.33;;
62353;SDS011;48391;49.184;2.418;2023-06-14T03:03:37;1.40;;;1.30;;
62353;SDS011;48391;49.184;2.418;2023-06-14T03:06:04;1.77;;;1.67;;
62353;SDS011;48391;49.184;2.418;2023-06-14T03:08:30;1.45;;;1.35;;
62353;SDS011;48391;49.184;2.418;2023-06-14T03:11:03;1.75;;;1.65;;
62353;SDS011;48391;49.184;2.418;2023-06-14T03:13:30;1.40;;;1.30;;
62353;SDS011;48391;49.184;2.418;2023-06-14T03:15:57;1.80;;;1.70;;
62353;SDS011;48391;49.184;2.418;2023-06-14T03:18:23;0.88;;;0.88;;
62353;SDS011;48391;49.184;2.418;2023-06-14T03:20:49;0.98;;;0.98;;
62353;SDS011;48391;49.184;2.418;2023-06-14T03:23:16;1.67;;;1.58;;
62353;SDS011;48391;49.184;2.418;2023-06-14T03:25:42;0.90;;;0.90;;
62353;SDS011;48391;49.184;2.418;2023-06-14T03:28:08;1.30;;;1.20;;
62353;SDS011;48391;49.184;2.418;2023-06-14T03:30:35;1.45;;;1.35;;
62353;SDS011;48391;49.184;2.418;2023-06-14T03:33:01;1.23;;;1.23;;
62353;SDS011;48391;49.184;2.418;2023-06-14T03:35:28;1.55;;;1.45;;
62353;SDS011;48391;49.184;2.418;2023-06-14T03:37:54;1.60;;;1.50;;
62353;SDS011;48391;49.184;2.418;2023-06-14T03:40:21;1.83;;;1.70;;
62353;SDS011;48391;49.184;2.418;2023-06-14T03:42:47;1.63;;;1.55;;
62353;SDS011;48391;49.184;2.418;2023-06-14T03:45:13;1.73;;;1.63;;
62353;SDS011;48391;49.184;2.418;2023-06-14T03:47:39;1.90;;;1.80;;
62353;SDS011;48391;49.184;2.418;2023-06-14T03:50:05;1.40;;;1.25;;
62353;SDS011;48391;49.184;2.418;2023-06-14T03:52:31;1.27;;;1.17;;
62353;SDS011;48391;49.184;2.418;2023-06-14T03:54:58;1.60;;;1.50;;
62353;SDS011;48391;49.184;2.418;2023-06-14T03:57:25;1.83;;;1.10;;
62353;SDS011;48391;49.184;2.418;2023-06-14T03:59:51;1.20;;;1.10;;
62353;SDS011;48391;49.184;2.418;2023-06-14T04:02:17;1.40;;;1.30;;
62353;SDS011;48391;49.184;2.418;2023-06-14T04:04:44;1.05;;;1.00;;
62353;SDS011;48391;49.184;2.418;2023-06-14T04:07:11;1.00;;;1.00;;
62353;SDS011;48391;49.184;2.418;2023-06-14T04:09:37;1.13;;;1.02;;
62353;SDS011;48391;49.184;2.418;2023-06-14T04:12:04;1.00;;;1.00;;
62353;SDS011;48391;49.184;2.418;2023-06-14T04:14:30;1.13;;;1.10;;
62353;SDS011;48391;49.184;2.418;2023-06-14T04:16:58;1.20;;;1.20;;
62353;SDS011;48391;49.184;2.418;2023-06-14T04:19:24;1.48;;;1.38;;
62353;SDS011;48391;49.184;2.418;2023-06-14T04:21:50;1.35;;;1.30;;
62353;SDS011;48391;49.184;2.418;2023-06-14T04:24:16;1.40;;;1.30;;
62353;SDS011;48391;49.184;2.418;2023-06-14T04:26:42;1.50;;;1.20;;
62353;SDS011;48391;49.184;2.418;2023-06-14T04:31:44;1.95;;;1.85;;
62353;SDS011;48391;49.184;2.418;2023-06-14T04:34:11;1.92;;;1.73;;
62353;SDS011;48391;49.184;2.418;2023-06-14T04:36:41;1.70;;;1.60;;
62353;SDS011;48391;49.184;2.418;2023-06-14T04:39:17;1.70;;;1.60;;
62353;SDS011;48391;49.184;2.418;2023-06-14T04:41:43;1.42;;;1.20;;
62353;SDS011;48391;49.184;2.418;2023-06-14T04:44:09;1.02;;;1.02;;
62353;SDS011;48391;49.184;2.418;2023-06-14T04:46:35;1.58;;;1.48;;
62353;SDS011;48391;49.184;2.418;2023-06-14T04:49:14;1.60;;;1.50;;
62353;SDS011;48391;49.184;2.418;2023-06-14T04:51:41;2.40;;;1.95;;
62353;SDS011;48391;49.184;2.418;2023-06-14T04:54:07;1.63;;;1.52;;
62353;SDS011;48391;49.184;2.418;2023-06-14T04:56:38;1.27;;;1.17;;
62353;SDS011;48391;49.184;2.418;2023-06-14T04:59:05;1.70;;;1.60;;
62353;SDS011;48391;49.184;2.418;2023-06-14T05:01:31;1.40;;;1.30;;
62353;SDS011;48391;49.184;2.418;2023-06-14T05:03:58;2.38;;;1.90;;
62353;SDS011;48391;49.184;2.418;2023-06-14T05:06:24;1.33;;;1.33;;
62353;SDS011;48391;49.184;2.418;2023-06-14T05:08:51;1.65;;;1.55;;
62353;SDS011;48391;49.184;2.418;2023-06-14T05:11:17;1.67;;;1.58;;
62353;SDS011;48391;49.184;2.418;2023-06-14T05:13:43;2.20;;;2.10;;
62353;SDS011;48391;49.184;2.418;2023-06-14T05:16:10;3.17;;;2.38;;
62353;SDS011;48391;49.184;2.418;2023-06-14T05:18:36;2.45;;;2.25;;
62353;SDS011;48391;49.184;2.418;2023-06-14T05:21:03;2.97;;;2.78;;
62353;SDS011;48391;49.184;2.418;2023-06-14T05:23:32;3.85;;;2.65;;
62353;SDS011;48391;49.184;2.418;2023-06-14T05:25:58;3.47;;;3.25;;
62353;SDS011;48391;49.184;2.418;2023-06-14T05:28:25;3.08;;;2.88;;
62353;SDS011;48391;49.184;2.418;2023-06-14T05:30:51;3.78;;;3.45;;
62353;SDS011;48391;49.184;2.418;2023-06-14T05:33:17;3.65;;;2.80;;
62353;SDS011;48391;49.184;2.418;2023-06-14T05:35:43;2.60;;;2.40;;
62353;SDS011;48391;49.184;2.418;2023-06-14T05:38:09;2.88;;;2.67;;
62353;SDS011;48391;49.184;2.418;2023-06-14T05:40:36;3.05;;;2.85;;
62353;SDS011;48391;49.184;2.418;2023-06-14T05:43:02;3.08;;;2.85;;
62353;SDS011;48391;49.184;2.418;2023-06-14T05:45:28;2.67;;;2.47;;
62353;SDS011;48391;49.184;2.418;2023-06-14T05:47:54;2.00;;;1.90;;
62353;SDS011;48391;49.184;2.418;2023-06-14T05:50:20;2.60;;;2.40;;
62353;SDS011;48391;49.184;2.418;2023-06-14T05:52:46;3.15;;;2.85;;
62353;SDS011;48391;49.184;2.418;2023-06-14T05:55:12;2.22;;;2.03;;
62353;SDS011;48391;49.184;2.418;2023-06-14T05:57:38;2.15;;;1.98;;
62353;SDS011;48391;49.184;2.418;2023-06-14T06:00:06;2.88;;;2.70;;
62353;SDS011;48391;49.184;2.418;2023-06-14T06:02:36;2.92;;;2.72;;
62353;SDS011;48391;49.184;2.418;2023-06-14T06:05:02;3.67;;;3.30;;
62353;SDS011;48391;49.184;2.418;2023-06-14T06:07:28;4.40;;;4.10;;
62353;SDS011;48391;49.184;2.418;2023-06-14T06:09:55;3.65;;;3.35;;
62353;SDS011;48391;49.184;2.418;2023-06-14T06:12:21;3.35;;;2.88;;
62353;SDS011;48391;49.184;2.418;2023-06-14T06:14:47;5.35;;;4.05;;
62353;SDS011;48391;49.184;2.418;2023-06-14T06:17:13;3.28;;;3.03;;
62353;SDS011;48391;49.184;2.418;2023-06-14T06:19:39;5.10;;;3.80;;
62353;SDS011;48391;49.184;2.418;2023-06-14T06:22:05;2.80;;;2.60;;
62353;SDS011;48391;49.184;2.418;2023-06-14T06:24:31;3.17;;;2.90;;
62353;SDS011;48391;49.184;2.418;2023-06-14T06:26:57;2.60;;;2.40;;
62353;SDS011;48391;49.184;2.418;2023-06-14T06:29:23;2.90;;;2.70;;
62353;SDS011;48391;49.184;2.418;2023-06-14T06:31:49;2.83;;;2.63;;
62353;SDS011;48391;49.184;2.418;2023-06-14T06:34:15;2.78;;;2.58;;
62353;SDS011;48391;49.184;2.418;2023-06-14T06:36:41;2.75;;;2.55;;
62353;SDS011;48391;49.184;2.418;2023-06-14T06:39:07;3.58;;;3.28;;
62353;SDS011;48391;49.184;2.418;2023-06-14T06:41:39;4.10;;;3.05;;
62353;SDS011;48391;49.184;2.418;2023-06-14T06:44:05;4.25;;;3.28;;
62353;SDS011;48391;49.184;2.418;2023-06-14T06:46:32;4.32;;;3.30;;
62353;SDS011;48391;49.184;2.418;2023-06-14T06:48:59;3.22;;;2.92;;
62353;SDS011;48391;49.184;2.418;2023-06-14T06:51:25;2.30;;;2.13;;
62353;SDS011;48391;49.184;2.418;2023-06-14T06:53:54;2.58;;;2.38;;
62353;SDS011;48391;49.184;2.418;2023-06-14T06:56:21;2.28;;;2.17;;
62353;SDS011;48391;49.184;2.418;2023-06-14T06:58:50;2.20;;;2.10;;
62353;SDS011;48391;49.184;2.418;2023-06-14T07:01:17;2.63;;;2.42;;
62353;SDS011;48391;49.184;2.418;2023-06-14T07:03:44;2.75;;;2.55;;
62353;SDS011;48391;49.184;2.418;2023-06-14T07:06:11;2.72;;;2.53;;
62353;SDS011;48391;49.184;2.418;2023-06-14T07:08:37;2.58;;;2.38;;
62353;SDS011;48391;49.184;2.418;2023-06-14T07:11:05;2.45;;;2.25;;
62353;SDS011;48391;49.184;2.418;2023-06-14T07:13:32;2.30;;;2.10;;
62353;SDS011;48391;49.184;2.418;2023-06-14T07:15:58;2.88;;;2.67;;
62353;SDS011;48391;49.184;2.418;2023-06-14T07:18:28;2.88;;;2.67;;
62353;SDS011;48391;49.184;2.418;2023-06-14T07:20:54;2.80;;;2.45;;
62353;SDS011;48391;49.184;2.418;2023-06-14T07:23:21;3.20;;;2.88;;
62353;SDS011;48391;49.184;2.418;2023-06-14T07:25:47;2.03;;;1.92;;
62353;SDS011;48391;49.184;2.418;2023-06-14T07:28:13;2.40;;;2.20;;
62353;SDS011;48391;49.184;2.418;2023-06-14T07:30:39;2.15;;;1.90;;
62353;SDS011;48391;49.184;2.418;2023-06-14T07:33:05;2.55;;;2.35;;
62353;SDS011;48391;49.184;2.418;2023-06-14T07:35:33;2.67;;;2.47;;
62353;SDS011;48391;49.184;2.418;2023-06-14T07:37:59;3.20;;;2.90;;
62353;SDS011;48391;49.184;2.418;2023-06-14T07:40:25;4.10;;;2.42;;
62353;SDS011;48391;49.184;2.418;2023-06-14T07:42:52;4.90;;;3.53;;
62353;SDS011;48391;49.184;2.418;2023-06-14T07:45:19;4.03;;;3.67;;
62353;SDS011;48391;49.184;2.418;2023-06-14T07:47:46;3.45;;;3.15;;
62353;SDS011;48391;49.184;2.418;2023-06-14T07:50:12;4.65;;;3.15;;
62353;SDS011;48391;49.184;2.418;2023-06-14T07:52:38;2.28;;;2.08;;
62353;SDS011;48391;49.184;2.418;2023-06-14T07:55:05;4.82;;;3.30;;
62353;SDS011;48391;49.184;2.418;2023-06-14T07:57:31;2.75;;;2.42;;
62353;SDS011;48391;49.184;2.418;2023-06-14T07:59:57;2.25;;;2.13;;
62353;SDS011;48391;49.184;2.418;2023-06-14T08:02:23;3.17;;;2.80;;
62353;SDS011;48391;49.184;2.418;2023-06-14T08:04:49;2.60;;;2.40;;
62353;SDS011;48391;49.184;2.418;2023-06-14T08:07:15;2.67;;;2.47;;
62353;SDS011;48391;49.184;2.418;2023-06-14T08:09:41;2.38;;;2.17;;
62353;SDS011;48391;49.184;2.418;2023-06-14T08:12:07;2.95;;;2.40;;
62353;SDS011;48391;49.184;2.418;2023-06-14T08:14:35;2.33;;;2.15;;
62353;SDS011;48391;49.184;2.418;2023-06-14T08:17:01;2.03;;;1.92;;
62353;SDS011;48391;49.184;2.418;2023-06-14T08:19:27;2.75;;;2.53;;
62353;SDS011;48391;49.184;2.418;2023-06-14T08:21:53;1.70;;;1.60;;
62353;SDS011;48391;49.184;2.418;2023-06-14T08:24:23;1.92;;;1.83;;
62353;SDS011;48391;49.184;2.418;2023-06-14T08:26:49;2.45;;;1.88;;
62353;SDS011;48391;49.184;2.418;2023-06-14T08:29:15;2.70;;;2.50;;
62353;SDS011;48391;49.184;2.418;2023-06-14T08:31:41;2.30;;;1.65;;
62353;SDS011;48391;49.184;2.418;2023-06-14T08:34:07;1.85;;;1.75;;
62353;SDS011;48391;49.184;2.418;2023-06-14T08:36:34;2.17;;;1.98;;
62353;SDS011;48391;49.184;2.418;2023-06-14T08:39:01;2.70;;;2.30;;
62353;SDS011;48391;49.184;2.418;2023-06-14T08:41:27;1.55;;;1.45;;
62353;SDS011;48391;49.184;2.418;2023-06-14T08:43:54;3.42;;;1.85;;
62353;SDS011;48391;49.184;2.418;2023-06-14T08:46:20;1.23;;;1.13;;
62353;SDS011;48391;49.184;2.418;2023-06-14T08:48:50;1.90;;;1.80;;
62353;SDS011;48391;49.184;2.418;2023-06-14T08:51:20;1.38;;;1.30;;
62353;SDS011;48391;49.184;2.418;2023-06-14T08:53:57;2.55;;;1.60;;
62353;SDS011;48391;49.184;2.418;2023-06-14T08:56:32;2.33;;;2.17;;
62353;SDS011;48391;49.184;2.418;2023-06-14T08:58:59;1.88;;;1.77;;
62353;SDS011;48391;49.184;2.418;2023-06-14T09:01:30;2.05;;;1.58;;
62353;SDS011;48391;49.184;2.418;2023-06-14T09:03:56;1.77;;;1.67;;
62353;SDS011;48391;49.184;2.418;2023-06-14T09:06:23;1.52;;;1.42;;
62353;SDS011;48391;49.184;2.418;2023-06-14T09:08:49;1.65;;;1.55;;
62353;SDS011;48391;49.184;2.418;2023-06-14T09:11:16;1.83;;;1.73;;
62353;SDS011;48391;49.184;2.418;2023-06-14T09:13:44;3.10;;;2.08;;
62353;SDS011;48391;49.184;2.418;2023-06-14T09:16:10;2.17;;;2.08;;
62353;SDS011;48391;49.184;2.418;2023-06-14T09:21:03;2.22;;;2.13;;
62353;SDS011;48391;49.184;2.418;2023-06-14T09:23:29;4.00;;;2.53;;
62353;SDS011;48391;49.184;2.418;2023-06-14T09:25:59;2.17;;;2.03;;
62353;SDS011;48391;49.184;2.418;2023-06-14T09:28:28;2.67;;;2.47;;
62353;SDS011;48391;49.184;2.418;2023-06-14T09:30:54;2.50;;;2.25;;
62353;SDS011;48391;49.184;2.418;2023-06-14T09:33:20;2.72;;;2.53;;
62353;SDS011;48391;49.184;2.418;2023-06-14T09:35:50;2.35;;;2.25;;
62353;SDS011;48391;49.184;2.418;2023-06-14T09:38:17;2.38;;;2.28;;
62353;SDS011;48391;49.184;2.418;2023-06-14T09:40:43;2.28;;;2.17;;
62353;SDS011;48391;49.184;2.418;2023-06-14T09:43:09;1.63;;;1.58;;
62353;SDS011;48391;49.184;2.418;2023-06-14T09:45:35;2.33;;;2.13;;
62353;SDS011;48391;49.184;2.418;2023-06-14T09:48:04;1.73;;;1.63;;
62353;SDS011;48391;49.184;2.418;2023-06-14T09:50:30;1.67;;;1.58;;
62353;SDS011;48391;49.184;2.418;2023-06-14T09:52:57;1.67;;;1.58;;
62353;SDS011;48391;49.184;2.418;2023-06-14T09:55:26;2.38;;;2.17;;
62353;SDS011;48391;49.184;2.418;2023-06-14T09:57:55;1.17;;;1.17;;
62353;SDS011;48391;49.184;2.418;2023-06-14T10:00:22;1.67;;;1.55;;
62353;SDS011;48391;49.184;2.418;2023-06-14T10:02:49;1.25;;;1.23;;
62353;SDS011;48391;49.184;2.418;2023-06-14T10:05:19;1.45;;;1.45;;
62353;SDS011;48391;49.184;2.418;2023-06-14T10:08:04;1.73;;;1.63;;
62353;SDS011;48391;49.184;2.418;2023-06-14T10:10:30;1.55;;;1.45;;
62353;SDS011;48391;49.184;2.418;2023-06-14T10:12:57;1.73;;;1.63;;
62353;SDS011;48391;49.184;2.418;2023-06-14T10:15:33;2.00;;;1.90;;
62353;SDS011;48391;49.184;2.418;2023-06-14T10:18:24;1.92;;;1.83;;
62353;SDS011;48391;49.184;2.418;2023-06-14T10:21:08;1.90;;;1.77;;
62353;SDS011;48391;49.184;2.418;2023-06-14T10:23:40;1.30;;;1.30;;
62353;SDS011;48391;49.184;2.418;2023-06-14T10:26:07;1.92;;;1.83;;
62353;SDS011;48391;49.184;2.418;2023-06-14T10:28:34;1.70;;;1.60;;
62353;SDS011;48391;49.184;2.418;2023-06-14T10:31:09;2.08;;;1.98;;
62353;SDS011;48391;49.184;2.418;2023-06-14T10:33:38;2.10;;;2.00;;
62353;SDS011;48391;49.184;2.418;2023-06-14T10:36:08;1.85;;;1.75;;
62353;SDS011;48391;49.184;2.418;2023-06-14T10:41:01;1.52;;;1.52;;
62353;SDS011;48391;49.184;2.418;2023-06-14T10:43:27;2.42;;;1.98;;
62353;SDS011;48391;49.184;2.418;2023-06-14T10:46:15;1.52;;;1.42;;
62353;SDS011;48391;49.184;2.418;2023-06-14T10:48:42;1.60;;;1.50;;
62353;SDS011;48391;49.184;2.418;2023-06-14T10:51:19;2.08;;;1.95;;
62353;SDS011;48391;49.184;2.418;2023-06-14T10:53:46;1.90;;;1.80;;
62353;SDS011;48391;49.184;2.418;2023-06-14T10:59:08;1.80;;;1.67;;
62353;SDS011;48391;49.184;2.418;2023-06-14T11:01:35;2.20;;;2.10;;
62353;SDS011;48391;49.184;2.418;2023-06-14T11:04:08;1.55;;;1.45;;
62353;SDS011;48391;49.184;2.418;2023-06-14T11:06:47;1.98;;;1.88;;
62353;SDS011;48391;49.184;2.418;2023-06-14T11:12:01;2.25;;;2.15;;
62353;SDS011;48391;49.184;2.418;2023-06-14T11:14:29;2.97;;;2.55;;
62353;SDS011;48391;49.184;2.418;2023-06-14T11:16:56;3.70;;;3.17;;
62353;SDS011;48391;49.184;2.418;2023-06-14T11:19:22;2.80;;;2.50;;
62353;SDS011;48391;49.184;2.418;2023-06-14T11:21:49;2.13;;;2.03;;
62353;SDS011;48391;49.184;2.418;2023-06-14T11:24:16;2.10;;;2.00;;
62353;SDS011;48391;49.184;2.418;2023-06-14T11:26:42;1.98;;;1.88;;
62353;SDS011;48391;49.184;2.418;2023-06-14T11:29:08;2.20;;;2.10;;
62353;SDS011;48391;49.184;2.418;2023-06-14T11:31:34;2.13;;;2.03;;
62353;SDS011;48391;49.184;2.418;2023-06-14T11:34:00;1.45;;;1.35;;
62353;SDS011;48391;49.184;2.418;2023-06-14T11:36:27;2.15;;;2.05;;
62353;SDS011;48391;49.184;2.418;2023-06-14T11:41:24;2.65;;;2.45;;
62353;SDS011;48391;49.184;2.418;2023-06-14T11:43:52;1.80;;;1.70;;
62353;SDS011;48391;49.184;2.418;2023-06-14T11:46:19;2.10;;;2.00;;
62353;SDS011;48391;49.184;2.418;2023-06-14T11:48:49;1.90;;;1.80;;
62353;SDS011;48391;49.184;2.418;2023-06-14T11:51:15;2.03;;;1.83;;
62353;SDS011;48391;49.184;2.418;2023-06-14T11:53:42;3.40;;;2.35;;
62353;SDS011;48391;49.184;2.418;2023-06-14T11:56:10;2.42;;;2.25;;
62353;SDS011;48391;49.184;2.418;2023-06-14T11:58:36;1.92;;;1.83;;
62353;SDS011;48391;49.184;2.418;2023-06-14T12:01:03;2.42;;;1.77;;
62353;SDS011;48391;49.184;2.418;2023-06-14T12:03:29;2.15;;;1.98;;
62353;SDS011;48391;49.184;2.418;2023-06-14T12:06:05;2.20;;;2.10;;
62353;SDS011;48391;49.184;2.418;2023-06-14T12:08:35;2.55;;;2.35;;
62353;SDS011;48391;49.184;2.418;2023-06-14T12:11:04;2.05;;;1.80;;
62353;SDS011;48391;49.184;2.418;2023-06-14T12:13:31;2.10;;;2.00;;
62353;SDS011;48391;49.184;2.418;2023-06-14T12:15:57;2.03;;;1.92;;
62353;SDS011;48391;49.184;2.418;2023-06-14T12:18:33;2.40;;;2.20;;
62353;SDS011;48391;49.184;2.418;2023-06-14T12:20:59;2.00;;;1.90;;
62353;SDS011;48391;49.184;2.418;2023-06-14T12:23:38;2.10;;;2.00;;
62353;SDS011;48391;49.184;2.418;2023-06-14T12:26:04;3.65;;;2.28;;
62353;SDS011;48391;49.184;2.418;2023-06-14T12:28:31;2.05;;;1.95;;
62353;SDS011;48391;49.184;2.418;2023-06-14T12:30:57;2.33;;;2.22;;
62353;SDS011;48391;49.184;2.418;2023-06-14T12:33:24;2.17;;;2.05;;
62353;SDS011;48391;49.184;2.418;2023-06-14T12:35:50;1.65;;;1.60;;
62353;SDS011;48391;49.184;2.418;2023-06-14T12:38:17;1.77;;;1.77;;
62353;SDS011;48391;49.184;2.418;2023-06-14T12:40:43;1.75;;;1.65;;
62353;SDS011;48391;49.184;2.418;2023-06-14T12:43:09;2.72;;;2.53;;
62353;SDS011;48391;49.184;2.418;2023-06-14T12:45:35;2.03;;;1.90;;
62353;SDS011;48391;49.184;2.418;2023-06-14T12:48:01;1.55;;;1.45;;
62353;SDS011;48391;49.184;2.418;2023-06-14T12:50:27;2.05;;;1.95;;
62353;SDS011;48391;49.184;2.418;2023-06-14T12:52:53;3.67;;;2.13;;
62353;SDS011;48391;49.184;2.418;2023-06-14T12:55:19;1.73;;;1.70;;
62353;SDS011;48391;49.184;2.418;2023-06-14T12:57:45;2.10;;;2.00;;
62353;SDS011;48391;49.184;2.418;2023-06-14T13:00:14;2.17;;;2.08;;
62353;SDS011;48391;49.184;2.418;2023-06-14T13:02:40;2.42;;;2.33;;
62353;SDS011;48391;49.184;2.418;2023-06-14T13:05:06;2.72;;;2.15;;
62353;SDS011;48391;49.184;2.418;2023-06-14T13:07:32;2.22;;;1.75;;
62353;SDS011;48391;49.184;2.418;2023-06-14T13:09:58;1.95;;;1.85;;
62353;SDS011;48391;49.184;2.418;2023-06-14T13:12:24;2.00;;;1.73;;
62353;SDS011;48391;49.184;2.418;2023-06-14T13:14:50;1.60;;;1.50;;
62353;SDS011;48391;49.184;2.418;2023-06-14T13:17:16;1.90;;;1.80;;
62353;SDS011;48391;49.184;2.418;2023-06-14T13:19:42;1.80;;;1.70;;
62353;SDS011;48391;49.184;2.418;2023-06-14T13:22:09;1.98;;;1.88;;
62353;SDS011;48391;49.184;2.418;2023-06-14T13:24:35;1.42;;;1.40;;
62353;SDS011;48391;49.184;2.418;2023-06-14T13:27:01;1.45;;;1.35;;
62353;SDS011;48391;49.184;2.418;2023-06-14T13:29:27;2.95;;;2.65;;
62353;SDS011;48391;49.184;2.418;2023-06-14T13:31:55;2.25;;;2.15;;
62353;SDS011;48391;49.184;2.418;2023-06-14T13:34:21;2.38;;;2.17;;
62353;SDS011;48391;49.184;2.418;2023-06-14T13:36:48;2.20;;;2.10;;
62353;SDS011;48391;49.184;2.418;2023-06-14T13:39:15;1.48;;;1.38;;
62353;SDS011;48391;49.184;2.418;2023-06-14T13:41:41;1.88;;;1.77;;
62353;SDS011;48391;49.184;2.418;2023-06-14T13:44:07;1.45;;;1.45;;
62353;SDS011;48391;49.184;2.418;2023-06-14T13:46:33;1.23;;;1.23;;
62353;SDS011;48391;49.184;2.418;2023-06-14T13:48:59;1.58;;;1.48;;
62353;SDS011;48391;49.184;2.418;2023-06-14T13:51:26;1.60;;;1.50;;
62353;SDS011;48391;49.184;2.418;2023-06-14T13:53:52;1.85;;;1.75;;
62353;SDS011;48391;49.184;2.418;2023-06-14T13:56:20;1.67;;;1.58;;
62353;SDS011;48391;49.184;2.418;2023-06-14T13:58:47;1.95;;;1.85;;
62353;SDS011;48391;49.184;2.418;2023-06-14T14:01:13;2.22;;;2.03;;
62353;SDS011;48391;49.184;2.418;2023-06-14T14:03:40;1.75;;;1.67;;
62353;SDS011;48391;49.184;2.418;2023-06-14T14:06:06;2.33;;;1.67;;
62353;SDS011;48391;49.184;2.418;2023-06-14T14:08:32;1.80;;;1.70;;
62353;SDS011;48391;49.184;2.418;2023-06-14T14:10:58;2.00;;;1.88;;
62353;SDS011;48391;49.184;2.418;2023-06-14T14:13:24;1.50;;;1.50;;
62353;SDS011;48391;49.184;2.418;2023-06-14T14:15:50;3.33;;;2.00;;
62353;SDS011;48391;49.184;2.418;2023-06-14T14:18:17;2.30;;;2.00;;
62353;SDS011;48391;49.184;2.418;2023-06-14T14:20:45;2.92;;;2.60;;
62353;SDS011;48391;49.184;2.418;2023-06-14T14:23:11;2.10;;;2.00;;
62353;SDS011;48391;49.184;2.418;2023-06-14T14:25:37;1.88;;;1.77;;
62353;SDS011;48391;49.184;2.418;2023-06-14T14:28:03;2.15;;;2.05;;
62353;SDS011;48391;49.184;2.418;2023-06-14T14:30:29;1.73;;;1.73;;
62353;SDS011;48391;49.184;2.418;2023-06-14T14:32:55;2.00;;;1.90;;
62353;SDS011;48391;49.184;2.418;2023-06-14T14:35:21;2.17;;;2.08;;
62353;SDS011;48391;49.184;2.418;2023-06-14T14:37:49;2.10;;;2.00;;
62353;SDS011;48391;49.184;2.418;2023-06-14T14:40:15;3.33;;;2.95;;
62353;SDS011;48391;49.184;2.418;2023-06-14T14:42:41;1.23;;;1.20;;
62353;SDS011;48391;49.184;2.418;2023-06-14T14:45:07;2.28;;;2.17;;
62353;SDS011;48391;49.184;2.418;2023-06-14T14:47:33;1.85;;;1.75;;
62353;SDS011;48391;49.184;2.418;2023-06-14T14:50:00;2.22;;;2.13;;
62353;SDS011;48391;49.184;2.418;2023-06-14T14:52:26;1.50;;;1.40;;
62353;SDS011;48391;49.184;2.418;2023-06-14T14:54:52;2.80;;;1.40;;
62353;SDS011;48391;49.184;2.418;2023-06-14T14:57:18;2.25;;;1.90;;
62353;SDS011;48391;49.184;2.418;2023-06-14T14:59:44;2.08;;;1.88;;
62353;SDS011;48391;49.184;2.418;2023-06-14T15:02:10;2.13;;;2.03;;
62353;SDS011;48391;49.184;2.418;2023-06-14T15:04:36;1.95;;;1.85;;
62353;SDS011;48391;49.184;2.418;2023-06-14T15:07:03;2.35;;;2.25;;
62353;SDS011;48391;49.184;2.418;2023-06-14T15:09:29;1.55;;;1.55;;